sensor_id;sensor_type;location;lat;lon;timestamp;P1;durP1;ratioP1;P2;durP2;ratioP2
11263;SDS011;5689;48.798;9.070;2023-06-22T00:00:33;0.22;;;0.22;;
11263;SDS011;5689;48.798;9.070;2023-06-22T00:03:01;0.15;;;0.15;;
11263;SDS011;5689;48.798;9.070;2023-06-22T00:05:29;0.15;;;0.15;;
11263;SDS011;5689;48.798;9.070;2023-06-22T00:07:58;0.25;;;0.25;;
11263;SDS011;5689;48.798;9.070;2023-06-22T00:10:29;0.32;;;0.32;;
11263;SDS011;5689;48.798;9.070;2023-06-22T00:12:57;0.32;;;0.32;;
11263;SDS011;5689;48.798;9.070;2023-06-22T00:15:25;0.22;;;0.22;;
11263;SDS011;5689;48.798;9.070;2023-06-22T00:17:55;0.22;;;0.22;;
11263;SDS011;5689;48.798;9.070;2023-06-22T00:20:25;0.25;;;0.25;;
11263;SDS011;5689;48.798;9.070;2023-06-22T00:22:55;0.17;;;0.17;;
11263;SDS011;5689;48.798;9.070;2023-06-22T00:25:24;0.25;;;0.25;;
11263;SDS011;5689;48.798;9.070;2023-06-22T00:27:52;0.40;;;0.40;;
11263;SDS011;5689;48.798;9.070;2023-06-22T00:30:20;0.30;;;0.30;;
11263;SDS011;5689;48.798;9.070;2023-06-22T00:32:48;0.25;;;0.25;;
11263;SDS011;5689;48.798;9.070;2023-06-22T00:35:17;0.20;;;0.20;;
11263;SDS011;5689;48.798;9.070;2023-06-22T00:37:45;0.22;;;0.22;;
11263;SDS011;5689;48.798;9.070;2023-06-22T00:40:13;0.35;;;0.35;;
11263;SDS011;5689;48.798;9.070;2023-06-22T00:42:43;0.65;;;0.65;;
11263;SDS011;5689;48.798;9.070;2023-06-22T00:45:13;0.55;;;0.55;;
11263;SDS011;5689;48.798;9.070;2023-06-22T00:47:42;0.65;;;0.65;;
11263;SDS011;5689;48.798;9.070;2023-06-22T00:50:10;1.38;;;1.38;;
11263;SDS011;5689;48.798;9.070;2023-06-22T00:52:48;1.13;;;1.13;;
11263;SDS011;5689;48.798;9.070;2023-06-22T00:55:19;1.17;;;1.17;;
11263;SDS011;5689;48.798;9.070;2023-06-22T00:57:48;0.75;;;0.75;;
11263;SDS011;5689;48.798;9.070;2023-06-22T01:00:16;0.68;;;0.68;;
11263;SDS011;5689;48.798;9.070;2023-06-22T01:02:46;0.47;;;0.47;;
11263;SDS011;5689;48.798;9.070;2023-06-22T01:05:17;0.75;;;0.75;;
11263;SDS011;5689;48.798;9.070;2023-06-22T01:08:00;0.40;;;0.40;;
11263;SDS011;5689;48.798;9.070;2023-06-22T01:10:38;0.30;;;0.30;;
11263;SDS011;5689;48.798;9.070;2023-06-22T01:13:14;0.38;;;0.38;;
11263;SDS011;5689;48.798;9.070;2023-06-22T01:15:51;0.40;;;0.40;;
11263;SDS011;5689;48.798;9.070;2023-06-22T01:18:24;0.40;;;0.40;;
11263;SDS011;5689;48.798;9.070;2023-06-22T01:20:55;0.47;;;0.47;;
11263;SDS011;5689;48.798;9.070;2023-06-22T01:23:27;0.38;;;0.38;;
11263;SDS011;5689;48.798;9.070;2023-06-22T01:26:06;0.45;;;0.45;;
11263;SDS011;5689;48.798;9.070;2023-06-22T01:28:48;0.47;;;0.47;;
11263;SDS011;5689;48.798;9.070;2023-06-22T01:31:18;0.47;;;0.47;;
11263;SDS011;5689;48.798;9.070;2023-06-22T01:33:49;0.73;;;0.73;;
11263;SDS011;5689;48.798;9.070;2023-06-22T01:36:18;0.60;;;0.60;;
11263;SDS011;5689;48.798;9.070;2023-06-22T01:38:48;0.57;;;0.57;;
11263;SDS011;5689;48.798;9.070;2023-06-22T01:41:18;0.43;;;0.43;;
11263;SDS011;5689;48.798;9.070;2023-06-22T01:43:48;0.40;;;0.40;;
11263;SDS011;5689;48.798;9.070;2023-06-22T01:46:19;0.63;;;0.63;;
11263;SDS011;5689;48.798;9.070;2023-06-22T01:48:48;0.55;;;0.55;;
11263;SDS011;5689;48.798;9.070;2023-06-22T01:51:16;0.40;;;0.40;;
11263;SDS011;5689;48.798;9.070;2023-06-22T01:53:45;0.40;;;0.40;;
11263;SDS011;5689;48.798;9.070;2023-06-22T01:56:14;0.52;;;0.52;;
11263;SDS011;5689;48.798;9.070;2023-06-22T01:58:46;0.65;;;0.65;;
11263;SDS011;5689;48.798;9.070;2023-06-22T02:01:20;0.50;;;0.50;;
11263;SDS011;5689;48.798;9.070;2023-06-22T02:03:53;0.40;;;0.40;;
11263;SDS011;5689;48.798;9.070;2023-06-22T02:06:30;0.65;;;0.65;;
11263;SDS011;5689;48.798;9.070;2023-06-22T02:09:02;0.65;;;0.65;;
11263;SDS011;5689;48.798;9.070;2023-06-22T02:11:33;0.45;;;0.45;;
11263;SDS011;5689;48.798;9.070;2023-06-22T02:14:04;0.88;;;0.88;;
11263;SDS011;5689;48.798;9.070;2023-06-22T02:16:34;0.85;;;0.85;;
11263;SDS011;5689;48.798;9.070;2023-06-22T02:19:04;0.82;;;0.82;;
11263;SDS011;5689;48.798;9.070;2023-06-22T02:21:33;1.02;;;1.02;;
11263;SDS011;5689;48.798;9.070;2023-06-22T02:24:01;1.10;;;1.10;;
11263;SDS011;5689;48.798;9.070;2023-06-22T02:26:30;7.75;;;7.43;;
11263;SDS011;5689;48.798;9.070;2023-06-22T02:29:01;2.40;;;2.35;;
11263;SDS011;5689;48.798;9.070;2023-06-22T02:31:30;1.48;;;1.48;;
11263;SDS011;5689;48.798;9.070;2023-06-22T02:33:58;0.88;;;0.88;;
11263;SDS011;5689;48.798;9.070;2023-06-22T02:36:27;0.82;;;0.82;;
11263;SDS011;5689;48.798;9.070;2023-06-22T02:38:58;1.52;;;1.50;;
11263;SDS011;5689;48.798;9.070;2023-06-22T02:41:27;1.02;;;1.02;;
11263;SDS011;5689;48.798;9.070;2023-06-22T02:43:55;0.98;;;0.98;;
11263;SDS011;5689;48.798;9.070;2023-06-22T02:46:24;0.75;;;0.75;;
11263;SDS011;5689;48.798;9.070;2023-06-22T02:48:54;0.73;;;0.73;;
11263;SDS011;5689;48.798;9.070;2023-06-22T02:51:22;1.33;;;1.33;;
11263;SDS011;5689;48.798;9.070;2023-06-22T02:53:50;1.10;;;1.10;;
11263;SDS011;5689;48.798;9.070;2023-06-22T02:56:24;0.98;;;0.98;;
11263;SDS011;5689;48.798;9.070;2023-06-22T02:58:57;3.30;;;3.17;;
11263;SDS011;5689;48.798;9.070;2023-06-22T03:01:31;1.15;;;1.15;;
11263;SDS011;5689;48.798;9.070;2023-06-22T03:04:06;0.88;;;0.88;;
11263;SDS011;5689;48.798;9.070;2023-06-22T03:06:34;1.05;;;1.05;;
11263;SDS011;5689;48.798;9.070;2023-06-22T03:09:03;1.35;;;1.35;;
11263;SDS011;5689;48.798;9.070;2023-06-22T03:11:33;1.00;;;1.00;;
11263;SDS011;5689;48.798;9.070;2023-06-22T03:14:02;0.93;;;0.93;;
11263;SDS011;5689;48.798;9.070;2023-06-22T03:16:30;1.23;;;1.23;;
11263;SDS011;5689;48.798;9.070;2023-06-22T03:18:59;0.70;;;0.70;;
11263;SDS011;5689;48.798;9.070;2023-06-22T03:21:29;0.55;;;0.55;;
11263;SDS011;5689;48.798;9.070;2023-06-22T03:23:59;0.63;;;0.63;;
11263;SDS011;5689;48.798;9.070;2023-06-22T03:26:27;0.40;;;0.40;;
11263;SDS011;5689;48.798;9.070;2023-06-22T03:28:56;0.47;;;0.47;;
11263;SDS011;5689;48.798;9.070;2023-06-22T03:31:24;0.35;;;0.35;;
11263;SDS011;5689;48.798;9.070;2023-06-22T03:33:52;0.47;;;0.47;;
11263;SDS011;5689;48.798;9.070;2023-06-22T03:36:22;0.40;;;0.40;;
11263;SDS011;5689;48.798;9.070;2023-06-22T03:38:51;0.52;;;0.52;;
11263;SDS011;5689;48.798;9.070;2023-06-22T03:41:20;0.68;;;0.68;;
11263;SDS011;5689;48.798;9.070;2023-06-22T03:43:49;0.73;;;0.73;;
11263;SDS011;5689;48.798;9.070;2023-06-22T03:46:17;0.70;;;0.70;;
11263;SDS011;5689;48.798;9.070;2023-06-22T03:48:46;1.13;;;1.13;;
11263;SDS011;5689;48.798;9.070;2023-06-22T03:51:14;1.02;;;1.02;;
11263;SDS011;5689;48.798;9.070;2023-06-22T03:53:42;0.85;;;0.85;;
11263;SDS011;5689;48.798;9.070;2023-06-22T03:56:11;0.70;;;0.70;;
11263;SDS011;5689;48.798;9.070;2023-06-22T03:58:39;0.43;;;0.43;;
11263;SDS011;5689;48.798;9.070;2023-06-22T04:01:09;0.30;;;0.30;;
11263;SDS011;5689;48.798;9.070;2023-06-22T04:03:38;0.25;;;0.25;;
11263;SDS011;5689;48.798;9.070;2023-06-22T04:06:06;0.30;;;0.30;;
11263;SDS011;5689;48.798;9.070;2023-06-22T04:08:34;0.32;;;0.32;;
11263;SDS011;5689;48.798;9.070;2023-06-22T04:11:02;0.22;;;0.22;;
11263;SDS011;5689;48.798;9.070;2023-06-22T04:13:32;0.17;;;0.17;;
11263;SDS011;5689;48.798;9.070;2023-06-22T04:16:00;0.13;;;0.13;;
11263;SDS011;5689;48.798;9.070;2023-06-22T04:18:28;0.10;;;0.10;;
11263;SDS011;5689;48.798;9.070;2023-06-22T04:20:56;0.22;;;0.22;;
11263;SDS011;5689;48.798;9.070;2023-06-22T04:23:24;0.10;;;0.10;;
11263;SDS011;5689;48.798;9.070;2023-06-22T04:25:52;0.10;;;0.10;;
11263;SDS011;5689;48.798;9.070;2023-06-22T04:28:22;0.10;;;0.10;;
11263;SDS011;5689;48.798;9.070;2023-06-22T04:30:53;0.10;;;0.10;;
11263;SDS011;5689;48.798;9.070;2023-06-22T04:33:28;0.10;;;0.10;;
11263;SDS011;5689;48.798;9.070;2023-06-22T04:35:57;0.10;;;0.10;;
11263;SDS011;5689;48.798;9.070;2023-06-22T04:38:27;0.10;;;0.10;;
11263;SDS011;5689;48.798;9.070;2023-06-22T04:40:55;0.00;;;0.00;;
11263;SDS011;5689;48.798;9.070;2023-06-22T04:43:23;0.00;;;0.00;;
11263;SDS011;5689;48.798;9.070;2023-06-22T04:45:52;0.00;;;0.00;;
11263;SDS011;5689;48.798;9.070;2023-06-22T04:48:20;0.00;;;0.00;;
11263;SDS011;5689;48.798;9.070;2023-06-22T04:50:48;0.00;;;0.00;;
11263;SDS011;5689;48.798;9.070;2023-06-22T04:53:18;0.00;;;0.00;;
11263;SDS011;5689;48.798;9.070;2023-06-22T04:55:46;0.00;;;0.00;;
11263;SDS011;5689;48.798;9.070;2023-06-22T04:58:15;0.00;;;0.00;;
11263;SDS011;5689;48.798;9.070;2023-06-22T05:00:46;0.00;;;0.00;;
11263;SDS011;5689;48.798;9.070;2023-06-22T05:03:16;0.00;;;0.00;;
11263;SDS011;5689;48.798;9.070;2023-06-22T05:05:45;0.00;;;0.00;;
11263;SDS011;5689;48.798;9.070;2023-06-22T05:08:13;0.00;;;0.00;;
11263;SDS011;5689;48.798;9.070;2023-06-22T05:10:41;0.00;;;0.00;;
11263;SDS011;5689;48.798;9.070;2023-06-22T05:13:13;0.00;;;0.00;;
11263;SDS011;5689;48.798;9.070;2023-06-22T05:15:41;0.00;;;0.00;;
11263;SDS011;5689;48.798;9.070;2023-06-22T05:18:10;0.00;;;0.00;;
11263;SDS011;5689;48.798;9.070;2023-06-22T05:20:39;0.00;;;0.00;;
11263;SDS011;5689;48.798;9.070;2023-06-22T05:23:08;0.00;;;0.00;;
11263;SDS011;5689;48.798;9.070;2023-06-22T05:25:36;0.00;;;0.00;;
11263;SDS011;5689;48.798;9.070;2023-06-22T05:28:04;0.00;;;0.00;;
11263;SDS011;5689;48.798;9.070;2023-06-22T05:30:37;0.00;;;0.00;;
11263;SDS011;5689;48.798;9.070;2023-06-22T05:33:05;0.00;;;0.00;;
11263;SDS011;5689;48.798;9.070;2023-06-22T05:35:33;0.00;;;0.00;;
11263;SDS011;5689;48.798;9.070;2023-06-22T05:38:03;0.00;;;0.00;;
11263;SDS011;5689;48.798;9.070;2023-06-22T05:40:31;0.00;;;0.00;;
11263;SDS011;5689;48.798;9.070;2023-06-22T05:42:58;0.00;;;0.00;;
11263;SDS011;5689;48.798;9.070;2023-06-22T05:45:28;0.00;;;0.00;;
11263;SDS011;5689;48.798;9.070;2023-06-22T05:47:56;0.00;;;0.00;;
11263;SDS011;5689;48.798;9.070;2023-06-22T05:50:24;0.00;;;0.00;;
11263;SDS011;5689;48.798;9.070;2023-06-22T05:52:52;0.00;;;0.00;;
11263;SDS011;5689;48.798;9.070;2023-06-22T05:55:21;0.00;;;0.00;;
11263;SDS011;5689;48.798;9.070;2023-06-22T05:57:49;0.10;;;0.10;;
11263;SDS011;5689;48.798;9.070;2023-06-22T06:00:17;0.00;;;0.00;;
11263;SDS011;5689;48.798;9.070;2023-06-22T06:02:46;0.00;;;0.00;;
11263;SDS011;5689;48.798;9.070;2023-06-22T06:05:15;0.00;;;0.00;;
11263;SDS011;5689;48.798;9.070;2023-06-22T06:07:44;0.00;;;0.00;;
11263;SDS011;5689;48.798;9.070;2023-06-22T06:10:13;0.10;;;0.10;;
11263;SDS011;5689;48.798;9.070;2023-06-22T06:12:42;0.10;;;0.10;;
11263;SDS011;5689;48.798;9.070;2023-06-22T06:15:10;0.00;;;0.00;;
11263;SDS011;5689;48.798;9.070;2023-06-22T06:17:44;0.00;;;0.00;;
11263;SDS011;5689;48.798;9.070;2023-06-22T06:20:13;0.00;;;0.00;;
11263;SDS011;5689;48.798;9.070;2023-06-22T06:22:41;0.00;;;0.00;;
11263;SDS011;5689;48.798;9.070;2023-06-22T06:25:10;0.00;;;0.00;;
11263;SDS011;5689;48.798;9.070;2023-06-22T06:27:44;0.00;;;0.00;;
11263;SDS011;5689;48.798;9.070;2023-06-22T06:30:13;0.00;;;0.00;;
11263;SDS011;5689;48.798;9.070;2023-06-22T06:32:42;0.10;;;0.10;;
11263;SDS011;5689;48.798;9.070;2023-06-22T06:35:12;0.00;;;0.00;;
11263;SDS011;5689;48.798;9.070;2023-06-22T06:37:42;0.00;;;0.00;;
11263;SDS011;5689;48.798;9.070;2023-06-22T06:40:12;0.00;;;0.00;;
11263;SDS011;5689;48.798;9.070;2023-06-22T06:42:41;0.00;;;0.00;;
11263;SDS011;5689;48.798;9.070;2023-06-22T06:45:12;0.00;;;0.00;;
11263;SDS011;5689;48.798;9.070;2023-06-22T06:47:42;0.00;;;0.00;;
11263;SDS011;5689;48.798;9.070;2023-06-22T06:50:10;0.00;;;0.00;;
11263;SDS011;5689;48.798;9.070;2023-06-22T06:52:39;0.00;;;0.00;;
11263;SDS011;5689;48.798;9.070;2023-06-22T06:55:08;0.00;;;0.00;;
11263;SDS011;5689;48.798;9.070;2023-06-22T06:57:38;0.00;;;0.00;;
11263;SDS011;5689;48.798;9.070;2023-06-22T07:00:09;0.00;;;0.00;;
11263;SDS011;5689;48.798;9.070;2023-06-22T07:02:40;0.00;;;0.00;;
11263;SDS011;5689;48.798;9.070;2023-06-22T07:05:09;0.00;;;0.00;;
11263;SDS011;5689;48.798;9.070;2023-06-22T07:07:38;0.00;;;0.00;;
11263;SDS011;5689;48.798;9.070;2023-06-22T07:10:08;0.00;;;0.00;;
11263;SDS011;5689;48.798;9.070;2023-06-22T07:12:36;0.00;;;0.00;;
11263;SDS011;5689;48.798;9.070;2023-06-22T07:15:05;0.00;;;0.00;;
11263;SDS011;5689;48.798;9.070;2023-06-22T07:17:36;0.00;;;0.00;;
11263;SDS011;5689;48.798;9.070;2023-06-22T07:20:06;0.00;;;0.00;;
11263;SDS011;5689;48.798;9.070;2023-06-22T07:22:36;0.00;;;0.00;;
11263;SDS011;5689;48.798;9.070;2023-06-22T07:25:05;0.00;;;0.00;;
11263;SDS011;5689;48.798;9.070;2023-06-22T07:27:36;0.00;;;0.00;;
11263;SDS011;5689;48.798;9.070;2023-06-22T07:30:05;0.00;;;0.00;;
11263;SDS011;5689;48.798;9.070;2023-06-22T07:32:35;0.00;;;0.00;;
11263;SDS011;5689;48.798;9.070;2023-06-22T07:35:03;0.00;;;0.00;;
11263;SDS011;5689;48.798;9.070;2023-06-22T07:37:32;0.00;;;0.00;;
11263;SDS011;5689;48.798;9.070;2023-06-22T07:40:01;0.00;;;0.00;;
11263;SDS011;5689;48.798;9.070;2023-06-22T07:42:32;0.00;;;0.00;;
11263;SDS011;5689;48.798;9.070;2023-06-22T07:45:00;0.00;;;0.00;;
11263;SDS011;5689;48.798;9.070;2023-06-22T07:47:29;0.00;;;0.00;;
11263;SDS011;5689;48.798;9.070;2023-06-22T07:49:58;0.00;;;0.00;;
11263;SDS011;5689;48.798;9.070;2023-06-22T07:52:27;0.00;;;0.00;;
11263;SDS011;5689;48.798;9.070;2023-06-22T07:54:56;0.00;;;0.00;;
11263;SDS011;5689;48.798;9.070;2023-06-22T07:57:24;0.00;;;0.00;;
11263;SDS011;5689;48.798;9.070;2023-06-22T07:59:59;0.00;;;0.00;;
11263;SDS011;5689;48.798;9.070;2023-06-22T08:02:37;0.00;;;0.00;;
11263;SDS011;5689;48.798;9.070;2023-06-22T08:05:07;0.00;;;0.00;;
11263;SDS011;5689;48.798;9.070;2023-06-22T08:07:45;0.00;;;0.00;;
11263;SDS011;5689;48.798;9.070;2023-06-22T08:10:13;0.00;;;0.00;;
11263;SDS011;5689;48.798;9.070;2023-06-22T08:12:41;0.00;;;0.00;;
11263;SDS011;5689;48.798;9.070;2023-06-22T08:15:09;0.00;;;0.00;;
11263;SDS011;5689;48.798;9.070;2023-06-22T08:17:38;0.00;;;0.00;;
11263;SDS011;5689;48.798;9.070;2023-06-22T08:20:08;0.00;;;0.00;;
11263;SDS011;5689;48.798;9.070;2023-06-22T08:22:38;0.00;;;0.00;;
11263;SDS011;5689;48.798;9.070;2023-06-22T08:25:06;0.00;;;0.00;;
11263;SDS011;5689;48.798;9.070;2023-06-22T08:27:35;0.00;;;0.00;;
11263;SDS011;5689;48.798;9.070;2023-06-22T08:30:04;0.00;;;0.00;;
11263;SDS011;5689;48.798;9.070;2023-06-22T08:32:33;0.00;;;0.00;;
11263;SDS011;5689;48.798;9.070;2023-06-22T08:35:01;0.00;;;0.00;;
11263;SDS011;5689;48.798;9.070;2023-06-22T08:37:31;0.00;;;0.00;;
11263;SDS011;5689;48.798;9.070;2023-06-22T08:40:03;0.00;;;0.00;;
11263;SDS011;5689;48.798;9.070;2023-06-22T08:42:34;0.00;;;0.00;;
11263;SDS011;5689;48.798;9.070;2023-06-22T08:45:02;0.00;;;0.00;;
11263;SDS011;5689;48.798;9.070;2023-06-22T08:47:31;0.00;;;0.00;;
11263;SDS011;5689;48.798;9.070;2023-06-22T08:49:59;0.00;;;0.00;;
11263;SDS011;5689;48.798;9.070;2023-06-22T08:52:28;0.00;;;0.00;;
11263;SDS011;5689;48.798;9.070;2023-06-22T08:55:01;0.00;;;0.00;;
11263;SDS011;5689;48.798;9.070;2023-06-22T08:57:29;0.00;;;0.00;;
11263;SDS011;5689;48.798;9.070;2023-06-22T08:59:59;0.00;;;0.00;;
11263;SDS011;5689;48.798;9.070;2023-06-22T09:02:27;0.00;;;0.00;;
11263;SDS011;5689;48.798;9.070;2023-06-22T09:04:56;0.00;;;0.00;;
11263;SDS011;5689;48.798;9.070;2023-06-22T09:07:25;0.00;;;0.00;;
11263;SDS011;5689;48.798;9.070;2023-06-22T09:09:55;0.00;;;0.00;;
11263;SDS011;5689;48.798;9.070;2023-06-22T09:12:23;0.00;;;0.00;;
11263;SDS011;5689;48.798;9.070;2023-06-22T09:14:53;0.00;;;0.00;;
11263;SDS011;5689;48.798;9.070;2023-06-22T09:17:21;0.00;;;0.00;;
11263;SDS011;5689;48.798;9.070;2023-06-22T09:19:49;0.00;;;0.00;;
11263;SDS011;5689;48.798;9.070;2023-06-22T09:22:17;0.00;;;0.00;;
11263;SDS011;5689;48.798;9.070;2023-06-22T09:24:45;0.00;;;0.00;;
11263;SDS011;5689;48.798;9.070;2023-06-22T09:27:14;0.00;;;0.00;;
11263;SDS011;5689;48.798;9.070;2023-06-22T09:29:42;0.00;;;0.00;;
11263;SDS011;5689;48.798;9.070;2023-06-22T09:32:10;0.00;;;0.00;;
11263;SDS011;5689;48.798;9.070;2023-06-22T09:34:38;0.00;;;0.00;;
11263;SDS011;5689;48.798;9.070;2023-06-22T09:37:07;0.00;;;0.00;;
11263;SDS011;5689;48.798;9.070;2023-06-22T09:39:35;0.00;;;0.00;;
11263;SDS011;5689;48.798;9.070;2023-06-22T09:42:03;0.00;;;0.00;;
11263;SDS011;5689;48.798;9.070;2023-06-22T09:44:34;0.00;;;0.00;;
11263;SDS011;5689;48.798;9.070;2023-06-22T09:47:02;0.00;;;0.00;;
11263;SDS011;5689;48.798;9.070;2023-06-22T09:49:30;0.00;;;0.00;;
11263;SDS011;5689;48.798;9.070;2023-06-22T09:52:15;0.00;;;0.00;;
11263;SDS011;5689;48.798;9.070;2023-06-22T09:54:45;0.00;;;0.00;;
11263;SDS011;5689;48.798;9.070;2023-06-22T09:57:16;0.00;;;0.00;;
11263;SDS011;5689;48.798;9.070;2023-06-22T09:59:45;0.00;;;0.00;;
11263;SDS011;5689;48.798;9.070;2023-06-22T10:02:14;0.00;;;0.00;;
11263;SDS011;5689;48.798;9.070;2023-06-22T10:04:43;0.00;;;0.00;;
11263;SDS011;5689;48.798;9.070;2023-06-22T10:07:11;0.00;;;0.00;;
11263;SDS011;5689;48.798;9.070;2023-06-22T10:09:39;0.00;;;0.00;;
11263;SDS011;5689;48.798;9.070;2023-06-22T10:12:07;0.00;;;0.00;;
11263;SDS011;5689;48.798;9.070;2023-06-22T10:14:36;0.00;;;0.00;;
11263;SDS011;5689;48.798;9.070;2023-06-22T10:17:05;0.00;;;0.00;;
11263;SDS011;5689;48.798;9.070;2023-06-22T10:19:34;0.00;;;0.00;;
11263;SDS011;5689;48.798;9.070;2023-06-22T10:22:04;0.00;;;0.00;;
11263;SDS011;5689;48.798;9.070;2023-06-22T10:24:32;0.00;;;0.00;;
11263;SDS011;5689;48.798;9.070;2023-06-22T10:27:00;0.00;;;0.00;;
11263;SDS011;5689;48.798;9.070;2023-06-22T10:29:28;0.00;;;0.00;;
11263;SDS011;5689;48.798;9.070;2023-06-22T10:31:56;0.00;;;0.00;;
11263;SDS011;5689;48.798;9.070;2023-06-22T10:34:25;0.00;;;0.00;;
11263;SDS011;5689;48.798;9.070;2023-06-22T10:36:53;0.00;;;0.00;;
11263;SDS011;5689;48.798;9.070;2023-06-22T10:39:21;0.00;;;0.00;;
11263;SDS011;5689;48.798;9.070;2023-06-22T10:41:49;0.00;;;0.00;;
11263;SDS011;5689;48.798;9.070;2023-06-22T10:44:17;0.00;;;0.00;;
11263;SDS011;5689;48.798;9.070;2023-06-22T10:46:47;0.00;;;0.00;;
11263;SDS011;5689;48.798;9.070;2023-06-22T10:49:14;0.00;;;0.00;;
11263;SDS011;5689;48.798;9.070;2023-06-22T10:51:44;0.00;;;0.00;;
11263;SDS011;5689;48.798;9.070;2023-06-22T10:54:12;0.00;;;0.00;;
11263;SDS011;5689;48.798;9.070;2023-06-22T10:56:40;0.00;;;0.00;;
11263;SDS011;5689;48.798;9.070;2023-06-22T10:59:08;0.00;;;0.00;;
11263;SDS011;5689;48.798;9.070;2023-06-22T11:01:36;0.00;;;0.00;;
11263;SDS011;5689;48.798;9.070;2023-06-22T11:04:04;0.00;;;0.00;;
11263;SDS011;5689;48.798;9.070;2023-06-22T11:06:32;0.00;;;0.00;;
11263;SDS011;5689;48.798;9.070;2023-06-22T11:09:02;0.00;;;0.00;;
11263;SDS011;5689;48.798;9.070;2023-06-22T11:11:37;0.00;;;0.00;;
11263;SDS011;5689;48.798;9.070;2023-06-22T11:14:05;0.00;;;0.00;;
11263;SDS011;5689;48.798;9.070;2023-06-22T11:16:33;0.00;;;0.00;;
11263;SDS011;5689;48.798;9.070;2023-06-22T11:19:01;0.00;;;0.00;;
11263;SDS011;5689;48.798;9.070;2023-06-22T11:21:29;0.00;;;0.00;;
11263;SDS011;5689;48.798;9.070;2023-06-22T11:23:58;0.00;;;0.00;;
11263;SDS011;5689;48.798;9.070;2023-06-22T11:26:28;0.00;;;0.00;;
11263;SDS011;5689;48.798;9.070;2023-06-22T11:28:56;0.00;;;0.00;;
11263;SDS011;5689;48.798;9.070;2023-06-22T11:31:24;0.00;;;0.00;;
11263;SDS011;5689;48.798;9.070;2023-06-22T11:33:52;0.00;;;0.00;;
11263;SDS011;5689;48.798;9.070;2023-06-22T11:36:22;0.00;;;0.00;;
11263;SDS011;5689;48.798;9.070;2023-06-22T11:38:50;0.00;;;0.00;;
11263;SDS011;5689;48.798;9.070;2023-06-22T11:41:18;0.00;;;0.00;;
11263;SDS011;5689;48.798;9.070;2023-06-22T11:43:47;0.00;;;0.00;;
11263;SDS011;5689;48.798;9.070;2023-06-22T11:46:15;0.00;;;0.00;;
11263;SDS011;5689;48.798;9.070;2023-06-22T11:48:43;0.00;;;0.00;;
11263;SDS011;5689;48.798;9.070;2023-06-22T11:51:11;0.00;;;0.00;;
11263;SDS011;5689;48.798;9.070;2023-06-22T11:53:39;0.00;;;0.00;;
11263;SDS011;5689;48.798;9.070;2023-06-22T11:56:07;0.00;;;0.00;;
11263;SDS011;5689;48.798;9.070;2023-06-22T11:58:35;0.00;;;0.00;;
11263;SDS011;5689;48.798;9.070;2023-06-22T12:01:05;0.00;;;0.00;;
11263;SDS011;5689;48.798;9.070;2023-06-22T12:03:33;0.00;;;0.00;;
11263;SDS011;5689;48.798;9.070;2023-06-22T12:06:01;0.00;;;0.00;;
11263;SDS011;5689;48.798;9.070;2023-06-22T12:08:29;0.00;;;0.00;;
11263;SDS011;5689;48.798;9.070;2023-06-22T12:10:57;0.00;;;0.00;;
11263;SDS011;5689;48.798;9.070;2023-06-22T12:13:25;0.00;;;0.00;;
11263;SDS011;5689;48.798;9.070;2023-06-22T12:15:53;0.00;;;0.00;;
11263;SDS011;5689;48.798;9.070;2023-06-22T12:18:22;0.00;;;0.00;;
11263;SDS011;5689;48.798;9.070;2023-06-22T12:20:50;0.00;;;0.00;;
11263;SDS011;5689;48.798;9.070;2023-06-22T12:23:18;0.00;;;0.00;;
11263;SDS011;5689;48.798;9.070;2023-06-22T12:25:46;0.00;;;0.00;;
11263;SDS011;5689;48.798;9.070;2023-06-22T12:28:14;0.00;;;0.00;;
11263;SDS011;5689;48.798;9.070;2023-06-22T12:30:42;0.00;;;0.00;;
11263;SDS011;5689;48.798;9.070;2023-06-22T12:33:11;0.00;;;0.00;;
11263;SDS011;5689;48.798;9.070;2023-06-22T12:35:40;0.00;;;0.00;;
11263;SDS011;5689;48.798;9.070;2023-06-22T12:38:08;0.00;;;0.00;;
11263;SDS011;5689;48.798;9.070;2023-06-22T12:40:36;0.00;;;0.00;;
11263;SDS011;5689;48.798;9.070;2023-06-22T12:43:04;0.00;;;0.00;;
11263;SDS011;5689;48.798;9.070;2023-06-22T12:45:33;0.00;;;0.00;;
11263;SDS011;5689;48.798;9.070;2023-06-22T12:48:01;0.00;;;0.00;;
11263;SDS011;5689;48.798;9.070;2023-06-22T12:50:30;0.00;;;0.00;;
11263;SDS011;5689;48.798;9.070;2023-06-22T12:52:59;0.00;;;0.00;;
11263;SDS011;5689;48.798;9.070;2023-06-22T12:55:28;0.00;;;0.00;;
11263;SDS011;5689;48.798;9.070;2023-06-22T12:57:58;0.00;;;0.00;;
11263;SDS011;5689;48.798;9.070;2023-06-22T13:00:26;0.00;;;0.00;;
11263;SDS011;5689;48.798;9.070;2023-06-22T13:02:54;0.00;;;0.00;;
11263;SDS011;5689;48.798;9.070;2023-06-22T13:05:22;0.00;;;0.00;;
11263;SDS011;5689;48.798;9.070;2023-06-22T13:07:50;0.00;;;0.00;;
11263;SDS011;5689;48.798;9.070;2023-06-22T13:10:20;0.00;;;0.00;;
11263;SDS011;5689;48.798;9.070;2023-06-22T13:12:48;0.00;;;0.00;;
11263;SDS011;5689;48.798;9.070;2023-06-22T13:15:16;0.00;;;0.00;;
11263;SDS011;5689;48.798;9.070;2023-06-22T13:17:44;0.00;;;0.00;;
11263;SDS011;5689;48.798;9.070;2023-06-22T13:20:12;0.00;;;0.00;;
11263;SDS011;5689;48.798;9.070;2023-06-22T13:22:40;0.00;;;0.00;;
11263;SDS011;5689;48.798;9.070;2023-06-22T13:25:09;0.00;;;0.00;;
11263;SDS011;5689;48.798;9.070;2023-06-22T13:27:40;0.00;;;0.00;;
11263;SDS011;5689;48.798;9.070;2023-06-22T13:30:09;0.00;;;0.00;;
11263;SDS011;5689;48.798;9.070;2023-06-22T13:32:39;0.00;;;0.00;;
11263;SDS011;5689;48.798;9.070;2023-06-22T13:35:09;0.00;;;0.00;;
11263;SDS011;5689;48.798;9.070;2023-06-22T13:37:37;0.00;;;0.00;;
11263;SDS011;5689;48.798;9.070;2023-06-22T13:40:06;0.00;;;0.00;;
11263;SDS011;5689;48.798;9.070;2023-06-22T13:42:35;0.00;;;0.00;;
11263;SDS011;5689;48.798;9.070;2023-06-22T13:45:04;0.00;;;0.00;;
11263;SDS011;5689;48.798;9.070;2023-06-22T13:47:33;0.00;;;0.00;;
11263;SDS011;5689;48.798;9.070;2023-06-22T13:50:01;0.00;;;0.00;;
11263;SDS011;5689;48.798;9.070;2023-06-22T13:52:29;0.00;;;0.00;;
11263;SDS011;5689;48.798;9.070;2023-06-22T13:54:57;0.00;;;0.00;;
11263;SDS011;5689;48.798;9.070;2023-06-22T13:57:25;0.00;;;0.00;;
11263;SDS011;5689;48.798;9.070;2023-06-22T13:59:53;0.00;;;0.00;;
11263;SDS011;5689;48.798;9.070;2023-06-22T14:02:23;0.00;;;0.00;;
11263;SDS011;5689;48.798;9.070;2023-06-22T14:04:51;0.00;;;0.00;;
11263;SDS011;5689;48.798;9.070;2023-06-22T14:07:19;0.00;;;0.00;;
11263;SDS011;5689;48.798;9.070;2023-06-22T14:09:47;0.00;;;0.00;;
11263;SDS011;5689;48.798;9.070;2023-06-22T14:12:16;0.00;;;0.00;;
11263;SDS011;5689;48.798;9.070;2023-06-22T14:14:45;0.00;;;0.00;;
11263;SDS011;5689;48.798;9.070;2023-06-22T14:17:13;0.00;;;0.00;;
11263;SDS011;5689;48.798;9.070;2023-06-22T14:19:42;0.00;;;0.00;;
11263;SDS011;5689;48.798;9.070;2023-06-22T14:22:10;0.00;;;0.00;;
11263;SDS011;5689;48.798;9.070;2023-06-22T14:24:38;0.00;;;0.00;;
11263;SDS011;5689;48.798;9.070;2023-06-22T14:27:06;0.00;;;0.00;;
11263;SDS011;5689;48.798;9.070;2023-06-22T14:29:35;0.00;;;0.00;;
11263;SDS011;5689;48.798;9.070;2023-06-22T14:32:03;0.00;;;0.00;;
11263;SDS011;5689;48.798;9.070;2023-06-22T14:34:32;0.00;;;0.00;;
11263;SDS011;5689;48.798;9.070;2023-06-22T14:37:03;0.00;;;0.00;;
11263;SDS011;5689;48.798;9.070;2023-06-22T14:39:32;0.00;;;0.00;;
11263;SDS011;5689;48.798;9.070;2023-06-22T14:42:00;0.00;;;0.00;;
11263;SDS011;5689;48.798;9.070;2023-06-22T14:44:29;0.00;;;0.00;;
11263;SDS011;5689;48.798;9.070;2023-06-22T14:46:57;0.08;;;0.00;;
11263;SDS011;5689;48.798;9.070;2023-06-22T14:49:26;0.00;;;0.00;;
11263;SDS011;5689;48.798;9.070;2023-06-22T14:51:53;0.00;;;0.00;;
11263;SDS011;5689;48.798;9.070;2023-06-22T14:54:23;0.00;;;0.00;;
11263;SDS011;5689;48.798;9.070;2023-06-22T14:56:51;0.00;;;0.00;;
11263;SDS011;5689;48.798;9.070;2023-06-22T14:59:19;0.00;;;0.00;;
11263;SDS011;5689;48.798;9.070;2023-06-22T15:01:47;0.00;;;0.00;;
11263;SDS011;5689;48.798;9.070;2023-06-22T15:04:15;0.00;;;0.00;;
11263;SDS011;5689;48.798;9.070;2023-06-22T15:06:43;0.00;;;0.00;;
11263;SDS011;5689;48.798;9.070;2023-06-22T15:09:11;0.00;;;0.00;;
11263;SDS011;5689;48.798;9.070;2023-06-22T15:11:41;0.00;;;0.00;;